createdAt,value
2023-03-11T00:00:01.821Z,25.0300
2023-03-11T00:00:13.101Z,25.0030
2023-03-11T00:00:24.198Z,25.0190
2023-03-11T00:00:35.400Z,25.0280
2023-03-11T00:00:47.455Z,25.0330
2023-03-11T00:00:58.813Z,25.0760
2023-03-11T00:01:09.963Z,25.0710
2023-03-11T00:01:21.004Z,25.0780
2023-03-11T00:01:32.058Z,25.0580
2023-03-11T00:01:43.182Z,25.0260
2023-03-11T00:01:54.467Z,25.0260
2023-03-11T00:02:05.681Z,25.0360
2023-03-11T00:02:16.932Z,25.0260
2023-03-11T00:02:28.170Z,25.0310
2023-03-11T00:02:39.260Z,25.0200
2023-03-11T00:02:50.279Z,24.9510
2023-03-11T00:03:01.366Z,24.8990
2023-03-11T00:03:12.394Z,24.8660
2023-03-11T00:03:23.500Z,24.8660
2023-03-11T00:03:34.531Z,24.8990
2023-03-11T00:03:45.608Z,24.9040
2023-03-11T00:03:56.643Z,24.9200
2023-03-11T00:04:07.887Z,24.9410
2023-03-11T00:04:19.080Z,24.9460
2023-03-11T00:04:30.280Z,24.9730
2023-03-11T00:04:41.377Z,24.9890
2023-03-11T00:04:52.617Z,25.0050
2023-03-11T00:05:03.786Z,25.0050
2023-03-11T00:05:14.852Z,25.0050
2023-03-11T00:05:25.998Z,24.9940
2023-03-11T00:05:37.226Z,25.0050
2023-03-11T00:05:48.366Z,24.9890
2023-03-11T00:05:59.449Z,24.9890
2023-03-11T00:06:10.489Z,24.9890
2023-03-11T00:06:21.662Z,24.9840
2023-03-11T00:06:32.845Z,24.9660
2023-03-11T00:06:43.893Z,24.9640
2023-03-11T00:06:54.910Z,24.9610
2023-03-11T00:07:05.945Z,24.9590
2023-03-11T00:07:17.019Z,24.9800
2023-03-11T00:07:28.199Z,25.0020
2023-03-11T00:07:39.409Z,25.0180
2023-03-11T00:07:50.526Z,25.0290
2023-03-11T00:08:01.586Z,25.0340
2023-03-11T00:08:12.660Z,25.0020
2023-03-11T00:08:23.732Z,25.0130
2023-03-11T00:08:34.776Z,25.0140
2023-03-11T00:08:45.859Z,25.0070
2023-03-11T00:08:56.918Z,24.9870
2023-03-11T00:09:07.960Z,24.9760
2023-03-11T00:09:19.015Z,24.9360
2023-03-11T00:09:30.136Z,24.8990
2023-03-11T00:09:41.332Z,24.9070
2023-03-11T00:09:52.385Z,24.9550
2023-03-11T00:10:03.449Z,24.9660
2023-03-11T00:10:14.606Z,24.9390
2023-03-11T00:10:27.037Z,24.9450
2023-03-11T00:10:39.590Z,24.9850
2023-03-11T00:10:50.765Z,24.9500
2023-03-11T00:11:01.808Z,24.9440
2023-03-11T00:11:12.859Z,24.9590
2023-03-11T00:11:24.040Z,24.9490
2023-03-11T00:11:35.115Z,24.9540
2023-03-11T00:11:46.171Z,24.9540
2023-03-11T00:11:57.339Z,24.9540
2023-03-11T00:12:08.390Z,24.9650
2023-03-11T00:12:19.434Z,24.9950
2023-03-11T00:12:30.636Z,24.9680
2023-03-11T00:12:41.705Z,24.9680
2023-03-11T00:12:52.802Z,24.9740
2023-03-11T00:13:03.910Z,24.9790
2023-03-11T00:13:14.955Z,24.9890
2023-03-11T00:13:25.996Z,25.0120
2023-03-11T00:13:37.187Z,25.0220
2023-03-11T00:13:48.396Z,24.9950
2023-03-11T00:13:59.493Z,24.9950
2023-03-11T00:14:10.556Z,24.9790
2023-03-11T00:14:21.628Z,24.9680
2023-03-11T00:14:32.871Z,24.9480
2023-03-11T00:14:43.913Z,24.9580
2023-03-11T00:14:54.964Z,24.9600
2023-03-11T00:15:06.147Z,24.9650
2023-03-11T00:15:17.353Z,24.9760
2023-03-11T00:15:28.570Z,24.9700
2023-03-11T00:15:39.790Z,24.9760
2023-03-11T00:15:50.796Z,24.9700
2023-03-11T00:16:01.840Z,24.9550
2023-03-11T00:16:13.068Z,24.9760
2023-03-11T00:16:24.272Z,24.9870
2023-03-11T00:16:35.499Z,24.9920
2023-03-11T00:16:46.670Z,24.9920
2023-03-11T00:16:57.754Z,24.9920
2023-03-11T00:17:08.823Z,24.9850
2023-03-11T00:17:19.914Z,24.9950
2023-03-11T00:17:30.980Z,24.9690
2023-03-11T00:17:42.057Z,24.9640
2023-03-11T00:17:53.238Z,24.9740
2023-03-11T00:18:04.398Z,24.9640
2023-03-11T00:18:15.592Z,24.9550
2023-03-11T00:18:26.853Z,24.9600
2023-03-11T00:18:37.868Z,24.9700
2023-03-11T00:18:48.942Z,24.9650
2023-03-11T00:19:00.101Z,24.9580
2023-03-11T00:19:11.106Z,24.9740
2023-03-11T00:19:22.157Z,24.9790
2023-03-11T00:19:33.353Z,24.9740
2023-03-11T00:19:44.388Z,24.9680
2023-03-11T00:19:55.443Z,24.9370
2023-03-11T00:20:06.499Z,24.9260
2023-03-11T00:20:17.566Z,24.9260
2023-03-11T00:20:28.730Z,24.9100
2023-03-11T00:20:39.915Z,24.9310
2023-03-11T00:20:50.958Z,24.9110
2023-03-11T00:21:02.025Z,24.8690
2023-03-11T00:21:13.199Z,24.8550
2023-03-11T00:21:24.398Z,24.8830
2023-03-11T00:21:35.588Z,24.8580
2023-03-11T00:21:46.813Z,24.8480
2023-03-11T00:21:57.867Z,24.8360
2023-03-11T00:22:08.928Z,24.8420
2023-03-11T00:22:20.068Z,24.8480
2023-03-11T00:22:31.111Z,24.8640
2023-03-11T00:22:42.161Z,24.8690
2023-03-11T00:22:53.354Z,24.8540
2023-03-11T00:23:04.428Z,24.8270
2023-03-11T00:23:15.500Z,24.8120
2023-03-11T00:23:26.665Z,24.7940
2023-03-11T00:23:37.676Z,24.7760
2023-03-11T00:23:48.729Z,24.7980
2023-03-11T00:23:59.921Z,24.7980
2023-03-11T00:24:10.947Z,24.8190
2023-03-11T00:24:21.996Z,24.8420
2023-03-11T00:24:33.215Z,24.8150
2023-03-11T00:24:44.244Z,24.8310
2023-03-11T00:24:55.282Z,24.8420
2023-03-11T00:25:06.474Z,24.8270
2023-03-11T00:25:17.517Z,24.8380
2023-03-11T00:25:28.574Z,24.8510
2023-03-11T00:25:39.746Z,24.8240
2023-03-11T00:25:50.954Z,24.8010
2023-03-11T00:26:02.157Z,24.7760
2023-03-11T00:26:13.353Z,24.7500
2023-03-11T00:26:24.388Z,24.7390
2023-03-11T00:26:35.433Z,24.7500
2023-03-11T00:26:46.632Z,24.7580
2023-03-11T00:26:57.668Z,24.7570
2023-03-11T00:27:08.712Z,24.7460
2023-03-11T00:27:19.907Z,24.7500
2023-03-11T00:27:31.062Z,24.7710
2023-03-11T00:27:42.114Z,24.7910
2023-03-11T00:27:53.199Z,24.8120
2023-03-11T00:28:04.231Z,24.8180
2023-03-11T00:28:15.309Z,24.8180
2023-03-11T00:28:26.497Z,24.7920
2023-03-11T00:28:37.522Z,24.7410
2023-03-11T00:28:48.591Z,24.7010
2023-03-11T00:28:59.753Z,24.6640
2023-03-11T00:29:10.951Z,24.6330
2023-03-11T00:29:22.147Z,24.6430
2023-03-11T00:29:33.193Z,24.6480
2023-03-11T00:29:44.243Z,24.6690
2023-03-11T00:29:55.425Z,24.6970
2023-03-11T00:30:06.638Z,24.7160
2023-03-11T00:30:17.846Z,24.7370
2023-03-11T00:30:29.089Z,24.7530
2023-03-11T00:30:40.297Z,24.7600
2023-03-11T00:30:51.469Z,24.7500
2023-03-11T00:31:02.700Z,24.7600
2023-03-11T00:31:13.951Z,24.7600
2023-03-11T00:31:25.023Z,24.7580
2023-03-11T00:31:36.225Z,24.7460
2023-03-11T00:31:47.434Z,24.7360
2023-03-11T00:31:58.484Z,24.7500
2023-03-11T00:32:09.523Z,24.7660
2023-03-11T00:32:20.746Z,24.7700
2023-03-11T00:32:31.788Z,24.7700
2023-03-11T00:32:42.861Z,24.7600
2023-03-11T00:32:53.981Z,24.7650
2023-03-11T00:33:05.202Z,24.7570
2023-03-11T00:33:16.462Z,24.7690
2023-03-11T00:33:27.588Z,24.7630
2023-03-11T00:33:38.792Z,24.7370
2023-03-11T00:33:49.826Z,24.7540
2023-03-11T00:34:00.874Z,24.7400
2023-03-11T00:34:12.083Z,24.7160
2023-03-11T00:34:23.117Z,24.6910
2023-03-11T00:34:34.161Z,24.6860
2023-03-11T00:34:45.351Z,24.6730
2023-03-11T00:34:56.386Z,24.6680
2023-03-11T00:35:07.450Z,24.6420
2023-03-11T00:35:18.486Z,24.6470
2023-03-11T00:35:29.520Z,24.6250
2023-03-11T00:35:40.751Z,24.6250
2023-03-11T00:35:51.971Z,24.6360
2023-03-11T00:36:03.062Z,24.6360
2023-03-11T00:36:14.139Z,24.6310
2023-03-11T00:36:25.169Z,24.6270
2023-03-11T00:36:36.409Z,24.6110
2023-03-11T00:36:47.596Z,24.6000
2023-03-11T00:36:58.794Z,24.5950
2023-03-11T00:37:09.865Z,24.5900
2023-03-11T00:37:20.911Z,24.5840
2023-03-11T00:37:32.086Z,24.5740
2023-03-11T00:37:43.107Z,24.5900
2023-03-11T00:37:54.164Z,24.5650
2023-03-11T00:38:05.392Z,24.5330
2023-03-11T00:38:16.438Z,24.4850
2023-03-11T00:38:27.608Z,24.4750
2023-03-11T00:38:38.701Z,24.4690
2023-03-11T00:38:49.892Z,24.4750
2023-03-11T00:39:01.100Z,24.5180
2023-03-11T00:39:12.232Z,24.5480
2023-03-11T00:39:23.267Z,24.5840
2023-03-11T00:39:34.438Z,24.6140
2023-03-11T00:39:45.515Z,24.6420
2023-03-11T00:39:56.711Z,24.6730
2023-03-11T00:40:07.746Z,24.6680
2023-03-11T00:40:18.798Z,24.6570
2023-03-11T00:40:29.844Z,24.6470
2023-03-11T00:40:40.902Z,24.6140
2023-03-11T00:40:52.066Z,24.5990
2023-03-11T00:41:03.178Z,24.5930
2023-03-11T00:41:14.246Z,24.5880
2023-03-11T00:41:25.316Z,24.5510
2023-03-11T00:41:36.370Z,24.5200
2023-03-11T00:41:47.430Z,24.4890
2023-03-11T00:41:58.625Z,24.4790
2023-03-11T00:42:09.831Z,24.4940
2023-03-11T00:42:21.038Z,24.5100
2023-03-11T00:42:32.227Z,24.5370
2023-03-11T00:42:43.442Z,24.5370
2023-03-11T00:42:54.626Z,24.5150
2023-03-11T00:43:05.826Z,24.5260
2023-03-11T00:43:17.035Z,24.5260
2023-03-11T00:43:28.245Z,24.4960
2023-03-11T00:43:39.426Z,24.5180
2023-03-11T00:43:50.640Z,24.5060
2023-03-11T00:44:01.827Z,24.5010
2023-03-11T00:44:13.037Z,24.5100
2023-03-11T00:44:24.232Z,24.5200
2023-03-11T00:44:35.431Z,24.5320
2023-03-11T00:44:46.532Z,24.5510
2023-03-11T00:44:57.588Z,24.5670
2023-03-11T00:45:08.702Z,24.5740
2023-03-11T00:45:19.751Z,24.5850
2023-03-11T00:45:30.785Z,24.5850
2023-03-11T00:45:41.998Z,24.5900
2023-03-11T00:45:53.085Z,24.5800
2023-03-11T00:46:04.155Z,24.5800
2023-03-11T00:46:15.287Z,24.5850
2023-03-11T00:46:26.430Z,24.5830
2023-03-11T00:46:37.749Z,24.5620
2023-03-11T00:46:48.870Z,24.5450
2023-03-11T00:47:00.090Z,24.5300
2023-03-11T00:47:11.325Z,24.5570
2023-03-11T00:47:22.336Z,24.5510
2023-03-11T00:47:33.389Z,24.5400
2023-03-11T00:47:44.564Z,24.5090
2023-03-11T00:47:55.752Z,24.5140
2023-03-11T00:48:06.950Z,24.5400
2023-03-11T00:48:18.151Z,24.5510
2023-03-11T00:48:29.243Z,24.5300
2023-03-11T00:48:40.319Z,24.5090
2023-03-11T00:48:51.431Z,24.5270
2023-03-11T00:49:02.469Z,24.5530
2023-03-11T00:49:13.505Z,24.5410
2023-03-11T00:49:24.722Z,24.5440
2023-03-11T00:49:35.752Z,24.5440
2023-03-11T00:49:46.785Z,24.5520
2023-03-11T00:49:57.986Z,24.5430
2023-03-11T00:50:09.033Z,24.5380
2023-03-11T00:50:20.075Z,24.5140
2023-03-11T00:50:31.293Z,24.5190
2023-03-11T00:50:42.332Z,24.4880
2023-03-11T00:50:53.406Z,24.4560
2023-03-11T00:51:04.557Z,24.4580
2023-03-11T00:51:15.584Z,24.4200
2023-03-11T00:51:26.668Z,24.4100
2023-03-11T00:51:37.826Z,24.4100
2023-03-11T00:51:48.906Z,24.4100
2023-03-11T00:51:59.957Z,24.4050
2023-03-11T00:52:11.104Z,24.3890
2023-03-11T00:52:22.181Z,24.4060
2023-03-11T00:52:33.245Z,24.4160
2023-03-11T00:52:44.392Z,24.4110
2023-03-11T00:52:55.585Z,24.4270
2023-03-11T00:53:06.785Z,24.4130
2023-03-11T00:53:17.986Z,24.3910
2023-03-11T00:53:29.197Z,24.3860
2023-03-11T00:53:40.461Z,24.3600
2023-03-11T00:53:51.595Z,24.3960
2023-03-11T00:54:02.786Z,24.4180
2023-03-11T00:54:13.987Z,24.4340
2023-03-11T00:54:25.025Z,24.4290
2023-03-11T00:54:36.067Z,24.4430
2023-03-11T00:54:47.271Z,24.4540
2023-03-11T00:54:58.474Z,24.4840
2023-03-11T00:55:09.666Z,24.5100
2023-03-11T00:55:20.866Z,24.5260
2023-03-11T00:55:32.070Z,24.5140
2023-03-11T00:55:43.269Z,24.5240
2023-03-11T00:55:54.468Z,24.5090
2023-03-11T00:56:05.674Z,24.5090
2023-03-11T00:56:16.869Z,24.4930
2023-03-11T00:56:27.908Z,24.5140
2023-03-11T00:56:38.945Z,24.5000
2023-03-11T00:56:50.150Z,24.5000
2023-03-11T00:57:01.343Z,24.4940
2023-03-11T00:57:12.551Z,24.4940
2023-03-11T00:57:23.745Z,24.5050
2023-03-11T00:57:34.804Z,24.5100
2023-03-11T00:57:45.840Z,24.5050
2023-03-11T00:57:57.034Z,24.4730
2023-03-11T00:58:08.235Z,24.4460
2023-03-11T00:58:19.445Z,24.4500
2023-03-11T00:58:30.641Z,24.4610
2023-03-11T00:58:41.686Z,24.4400
2023-03-11T00:58:52.797Z,24.4360
2023-03-11T00:59:03.910Z,24.4460
2023-03-11T00:59:14.946Z,24.4360
2023-03-11T00:59:26.005Z,24.4430
2023-03-11T00:59:37.184Z,24.4270
2023-03-11T00:59:48.255Z,24.3950
2023-03-11T00:59:59.317Z,24.4060
2023-03-11T01:00:10.466Z,24.4210
2023-03-11T01:00:21.675Z,24.4000
2023-03-11T01:00:32.873Z,24.3900
2023-03-11T01:00:44.080Z,24.3950
2023-03-11T01:00:55.107Z,24.4110
2023-03-11T01:01:06.189Z,24.4410
2023-03-11T01:01:17.433Z,24.4630
2023-03-11T01:01:28.654Z,24.4580
2023-03-11T01:01:39.824Z,24.4500
2023-03-11T01:01:50.946Z,24.4500
2023-03-11T01:02:01.991Z,24.4290
2023-03-11T01:02:13.029Z,24.4260
2023-03-11T01:02:24.224Z,24.4360
2023-03-11T01:02:35.443Z,24.4360
2023-03-11T01:02:46.629Z,24.4300
2023-03-11T01:02:57.668Z,24.4610
2023-03-11T01:03:08.716Z,24.4560
2023-03-11T01:03:19.907Z,24.4660
2023-03-11T01:03:30.952Z,24.4530
2023-03-11T01:03:42.010Z,24.4260
2023-03-11T01:03:53.196Z,24.4020
2023-03-11T01:04:04.234Z,24.3810
2023-03-11T01:04:15.375Z,24.3860
2023-03-11T01:04:26.484Z,24.3660
2023-03-11T01:04:37.552Z,24.3970
2023-03-11T01:04:48.605Z,24.4140
2023-03-11T01:04:59.752Z,24.4290
2023-03-11T01:05:10.827Z,24.4310
2023-03-11T01:05:21.844Z,24.4260
2023-03-11T01:05:33.032Z,24.4410
2023-03-11T01:05:44.075Z,24.4660
2023-03-11T01:05:55.114Z,24.4920
2023-03-11T01:06:06.146Z,24.5180
2023-03-11T01:06:17.194Z,24.4940
2023-03-11T01:06:39.178Z,24.4690
2023-03-11T01:06:45.986Z,24.5690
2023-03-11T01:06:57.192Z,24.5530
2023-03-11T01:07:10.409Z,24.4950
2023-03-11T01:07:22.481Z,24.5320
2023-03-11T01:07:33.690Z,24.4890
2023-03-11T01:07:44.710Z,24.4580
2023-03-11T01:07:55.744Z,24.4410
2023-03-11T01:08:06.867Z,24.4410
2023-03-11T01:08:17.923Z,24.4740
2023-03-11T01:08:29.030Z,24.4880
2023-03-11T01:08:40.244Z,24.4700
2023-03-11T01:08:51.324Z,24.4630
2023-03-11T01:09:02.362Z,24.4520
2023-03-11T01:09:13.504Z,24.4770
2023-03-11T01:09:24.556Z,24.4600
2023-03-11T01:09:35.601Z,24.4870
2023-03-11T01:09:46.792Z,24.4920
2023-03-11T01:09:57.830Z,24.5130
2023-03-11T01:10:08.863Z,24.4980
2023-03-11T01:10:20.077Z,24.4920
2023-03-11T01:10:31.264Z,24.4730
2023-03-11T01:10:42.471Z,24.4740
2023-03-11T01:10:53.666Z,24.4610
2023-03-11T01:11:04.866Z,24.4460
2023-03-11T01:11:16.069Z,24.4300
2023-03-11T01:11:27.274Z,24.4210
2023-03-11T01:11:38.465Z,24.4090
2023-03-11T01:11:49.670Z,24.4440
2023-03-11T01:12:00.706Z,24.4540
2023-03-11T01:12:11.766Z,24.4630
2023-03-11T01:12:22.951Z,24.4970
2023-03-11T01:12:34.151Z,24.5080
2023-03-11T01:12:45.209Z,24.5040
2023-03-11T01:12:56.230Z,24.4690
2023-03-11T01:13:07.265Z,24.4480
2023-03-11T01:13:18.305Z,24.4310
2023-03-11T01:13:29.510Z,24.4100
2023-03-11T01:13:40.543Z,24.4080
2023-03-11T01:13:51.628Z,24.4140
2023-03-11T01:14:02.787Z,24.4080
2023-03-11T01:14:13.832Z,24.4240
2023-03-11T01:14:24.935Z,24.4190
2023-03-11T01:14:36.068Z,24.4140
2023-03-11T01:14:47.273Z,24.4290
2023-03-11T01:14:58.473Z,24.4350
2023-03-11T01:15:09.672Z,24.4500
2023-03-11T01:15:20.867Z,24.4240
2023-03-11T01:15:32.140Z,24.3920
2023-03-11T01:15:43.435Z,24.4080
2023-03-11T01:15:54.839Z,24.4080
2023-03-11T01:16:06.004Z,24.3970
2023-03-11T01:16:17.237Z,24.3720
2023-03-11T01:16:28.388Z,24.3670
2023-03-11T01:16:39.592Z,24.3720
2023-03-11T01:16:50.797Z,24.3840
2023-03-11T01:17:01.986Z,24.3890
2023-03-11T01:17:13.024Z,24.3990
2023-03-11T01:17:24.084Z,24.4080
2023-03-11T01:17:35.274Z,24.3920
2023-03-11T01:17:46.313Z,24.3550
2023-03-11T01:17:57.358Z,24.3810
2023-03-11T01:18:08.465Z,24.3620
2023-03-11T01:18:19.505Z,24.3450
2023-03-11T01:18:30.633Z,24.3630
2023-03-11T01:18:41.824Z,24.3780
2023-03-11T01:18:52.904Z,24.3970
2023-03-11T01:19:03.959Z,24.4170
2023-03-11T01:19:15.156Z,24.4270
2023-03-11T01:19:26.200Z,24.4430
2023-03-11T01:19:37.261Z,24.4590
2023-03-11T01:19:48.395Z,24.4860
2023-03-11T01:19:59.421Z,24.4660
2023-03-11T01:20:10.454Z,24.4550
2023-03-11T01:20:21.676Z,24.4300
2023-03-11T01:20:32.753Z,24.4320
2023-03-11T01:20:43.968Z,24.4130
2023-03-11T01:20:55.033Z,24.3980
2023-03-11T01:21:06.109Z,24.3870
2023-03-11T01:21:17.313Z,24.4050
2023-03-11T01:21:28.340Z,24.4150
2023-03-11T01:21:39.391Z,24.4150
2023-03-11T01:21:50.581Z,24.4000
2023-03-11T01:22:01.780Z,24.3890
2023-03-11T01:22:12.870Z,24.3950
2023-03-11T01:22:23.915Z,24.4300
2023-03-11T01:22:34.988Z,24.4440
2023-03-11T01:22:46.049Z,24.4480
2023-03-11T01:22:57.123Z,24.4620
2023-03-11T01:23:08.331Z,24.4710
2023-03-11T01:23:19.538Z,24.4770
2023-03-11T01:23:30.643Z,24.4910
2023-03-11T01:23:41.688Z,24.4800
2023-03-11T01:23:52.826Z,24.4860
2023-03-11T01:24:04.090Z,24.4960
2023-03-11T01:24:15.225Z,24.5070
2023-03-11T01:24:26.411Z,24.4800
2023-03-11T01:24:37.620Z,24.4860
2023-03-11T01:24:48.818Z,24.4490
2023-03-11T01:24:59.882Z,24.4290
2023-03-11T01:25:10.949Z,24.4440
2023-03-11T01:25:22.096Z,24.4080
2023-03-11T01:25:33.298Z,24.4140
2023-03-11T01:25:44.530Z,24.4350
2023-03-11T01:25:55.527Z,24.4270
2023-03-11T01:26:06.588Z,24.4430
2023-03-11T01:26:17.779Z,24.4490
2023-03-11T01:26:28.982Z,24.4300
2023-03-11T01:26:40.197Z,24.3820
2023-03-11T01:26:51.372Z,24.3820
2023-03-11T01:27:02.607Z,24.3800
2023-03-11T01:27:13.788Z,24.4000
2023-03-11T01:27:24.980Z,24.4350
2023-03-11T01:27:36.172Z,24.4440
2023-03-11T01:27:47.386Z,24.4710
2023-03-11T01:27:58.575Z,24.4960
2023-03-11T01:28:09.643Z,24.4960
2023-03-11T01:28:20.734Z,24.4660
2023-03-11T01:28:31.866Z,24.4770
2023-03-11T01:28:43.075Z,24.4660
2023-03-11T01:28:54.265Z,24.4620
2023-03-11T01:29:05.351Z,24.4690
2023-03-11T01:29:16.388Z,24.4540
2023-03-11T01:29:27.530Z,24.4190
2023-03-11T01:29:38.738Z,24.4250
2023-03-11T01:29:49.934Z,24.4460
2023-03-11T01:30:01.144Z,24.4330
2023-03-11T01:30:12.336Z,24.4180
2023-03-11T01:30:23.546Z,24.4230
2023-03-11T01:30:34.732Z,24.4270
2023-03-11T01:30:45.968Z,24.4160
2023-03-11T01:30:57.157Z,24.4320
2023-03-11T01:31:08.255Z,24.4070
2023-03-11T01:31:19.385Z,24.4040
2023-03-11T01:31:30.422Z,24.3840
2023-03-11T01:31:41.633Z,24.3790
2023-03-11T01:31:52.812Z,24.4000
2023-03-11T01:32:04.021Z,24.3950
2023-03-11T01:32:15.285Z,24.3790
2023-03-11T01:32:26.438Z,24.3740
2023-03-11T01:32:37.655Z,24.3790
2023-03-11T01:32:48.958Z,24.3670
2023-03-11T01:33:00.107Z,24.3890
2023-03-11T01:33:11.122Z,24.3840
2023-03-11T01:33:22.182Z,24.3970
2023-03-11T01:33:33.298Z,24.3810
2023-03-11T01:33:44.332Z,24.3810
2023-03-11T01:33:55.381Z,24.3600
2023-03-11T01:34:06.610Z,24.3600
2023-03-11T01:34:17.639Z,24.3710
2023-03-11T01:34:28.673Z,24.3810
2023-03-11T01:34:39.775Z,24.3860
2023-03-11T01:34:50.994Z,24.3950
2023-03-11T01:35:02.239Z,24.4000
2023-03-11T01:35:13.766Z,24.4150
2023-03-11T01:35:24.818Z,24.4140
2023-03-11T01:35:35.916Z,24.3910
2023-03-11T01:35:46.977Z,24.3630
2023-03-11T01:35:58.069Z,24.3790
2023-03-11T01:36:09.246Z,24.3790
2023-03-11T01:36:20.330Z,24.3840
2023-03-11T01:36:31.361Z,24.3750
2023-03-11T01:36:42.411Z,24.3770
2023-03-11T01:36:53.626Z,24.3460
2023-03-11T01:37:04.818Z,24.3620
2023-03-11T01:37:15.858Z,24.3460
2023-03-11T01:37:26.900Z,24.3260
2023-03-11T01:37:38.100Z,24.3260
2023-03-11T01:37:49.149Z,24.3400
2023-03-11T01:38:00.183Z,24.3750
2023-03-11T01:38:11.369Z,24.3890
2023-03-11T01:38:22.577Z,24.4140
2023-03-11T01:38:33.771Z,24.4290
2023-03-11T01:38:44.990Z,24.4380
2023-03-11T01:38:56.187Z,24.4740
2023-03-11T01:39:07.447Z,24.4910
2023-03-11T01:39:18.576Z,24.4820
2023-03-11T01:39:29.597Z,24.4930
2023-03-11T01:39:40.665Z,24.4820
2023-03-11T01:39:51.851Z,24.4770
2023-03-11T01:40:03.050Z,24.4820
2023-03-11T01:40:14.264Z,24.5030
2023-03-11T01:40:25.447Z,24.4960
2023-03-11T01:40:36.656Z,24.4960
2023-03-11T01:40:47.855Z,24.4740
2023-03-11T01:40:59.055Z,24.4710
2023-03-11T01:41:10.250Z,24.4550
2023-03-11T01:41:21.450Z,24.4520
2023-03-11T01:41:32.529Z,24.4320
2023-03-11T01:41:43.581Z,24.4330
2023-03-11T01:41:54.729Z,24.4250
2023-03-11T01:42:05.935Z,24.4210
2023-03-11T01:42:17.138Z,24.4260
2023-03-11T01:42:28.334Z,24.4210
2023-03-11T01:42:39.529Z,24.4100
2023-03-11T01:42:50.735Z,24.4090
2023-03-11T01:43:01.930Z,24.4180
2023-03-11T01:43:13.143Z,24.4280
2023-03-11T01:43:24.329Z,24.4440
2023-03-11T01:43:35.537Z,24.4140
2023-03-11T01:43:46.735Z,24.3660
2023-03-11T01:43:57.769Z,24.3310
2023-03-11T01:44:08.844Z,24.3360
2023-03-11T01:44:20.018Z,24.3460
2023-03-11T01:44:31.220Z,24.3410
2023-03-11T01:44:42.415Z,24.3520
2023-03-11T01:44:53.616Z,24.3550
2023-03-11T01:45:04.824Z,24.3230
2023-03-11T01:45:16.015Z,24.3260
2023-03-11T01:45:27.233Z,24.3620
2023-03-11T01:45:38.457Z,24.3870
2023-03-11T01:45:49.623Z,24.3980
2023-03-11T01:46:00.701Z,24.3840
2023-03-11T01:46:11.852Z,24.3790
2023-03-11T01:46:23.040Z,24.3740
2023-03-11T01:46:34.166Z,24.3620
2023-03-11T01:46:45.349Z,24.3570
2023-03-11T01:46:56.489Z,24.3740
2023-03-11T01:47:07.690Z,24.3820
2023-03-11T01:47:18.894Z,24.4040
2023-03-11T01:47:30.090Z,24.4280
2023-03-11T01:47:41.298Z,24.4470
2023-03-11T01:47:52.489Z,24.4770
2023-03-11T01:48:03.523Z,24.4600
2023-03-11T01:48:14.568Z,24.4490
2023-03-11T01:48:25.579Z,24.4490
2023-03-11T01:48:36.648Z,24.4390
2023-03-11T01:48:47.694Z,24.4390
2023-03-11T01:48:58.742Z,24.4440
2023-03-11T01:49:09.958Z,24.4300
2023-03-11T01:49:21.128Z,24.4270
2023-03-11T01:49:32.333Z,24.4330
2023-03-11T01:49:43.371Z,24.4330
2023-03-11T01:49:54.417Z,24.4040
2023-03-11T01:50:05.610Z,24.3950
2023-03-11T01:50:16.643Z,24.4000
2023-03-11T01:50:27.687Z,24.3790
2023-03-11T01:50:38.893Z,24.3860
2023-03-11T01:50:49.939Z,24.3860
2023-03-11T01:51:00.973Z,24.3860
2023-03-11T01:51:12.165Z,24.3450
2023-03-11T01:51:23.209Z,24.3400
2023-03-11T01:51:34.247Z,24.3450
2023-03-11T01:51:45.453Z,24.3230
2023-03-11T01:51:56.653Z,24.3280
2023-03-11T01:52:07.849Z,24.3340
2023-03-11T01:52:19.048Z,24.3660
2023-03-11T01:52:30.252Z,24.3810
2023-03-11T01:52:41.494Z,24.3810
2023-03-11T01:52:52.668Z,24.3500
2023-03-11T01:53:03.853Z,24.3450
2023-03-11T01:53:15.050Z,24.3340
2023-03-11T01:53:26.100Z,24.3450
2023-03-11T01:53:37.143Z,24.3400
2023-03-11T01:53:48.328Z,24.3230
2023-03-11T01:53:59.538Z,24.3230
2023-03-11T01:54:10.803Z,24.3340
2023-03-11T01:54:21.934Z,24.3450
2023-03-11T01:54:33.140Z,24.3620
2023-03-11T01:54:44.342Z,24.3840
2023-03-11T01:54:55.373Z,24.3950
2023-03-11T01:55:06.407Z,24.3820
2023-03-11T01:55:17.448Z,24.3700
2023-03-11T01:55:28.488Z,24.3700
2023-03-11T01:55:39.686Z,24.3890
2023-03-11T01:55:50.895Z,24.3840
2023-03-11T01:56:02.098Z,24.4050
2023-03-11T01:56:13.293Z,24.4020
2023-03-11T01:56:24.490Z,24.4180
2023-03-11T01:56:35.557Z,24.4300
2023-03-11T01:56:46.615Z,24.4250
2023-03-11T01:56:57.782Z,24.3980
2023-03-11T01:57:08.824Z,24.3820
2023-03-11T01:57:19.855Z,24.4000
2023-03-11T01:57:31.071Z,24.4050
2023-03-11T01:57:42.275Z,24.4040
2023-03-11T01:57:53.500Z,24.4180
2023-03-11T01:58:04.653Z,24.4180
2023-03-11T01:58:15.852Z,24.4290
2023-03-11T01:58:27.059Z,24.4480
2023-03-11T01:58:38.256Z,24.4540
2023-03-11T01:58:49.454Z,24.4670
2023-03-11T01:59:00.655Z,24.5190
2023-03-11T01:59:11.743Z,24.5280
2023-03-11T01:59:22.827Z,24.5180
2023-03-11T01:59:33.934Z,24.5180
2023-03-11T01:59:44.974Z,24.5330
2023-03-11T01:59:56.007Z,24.5410
2023-03-11T02:00:07.213Z,24.5330
2023-03-11T02:00:18.412Z,24.4910
2023-03-11T02:00:29.614Z,24.4960
2023-03-11T02:00:40.807Z,24.4980
2023-03-11T02:00:52.022Z,24.4990
2023-03-11T02:01:03.214Z,24.4740
2023-03-11T02:01:14.485Z,24.4480
2023-03-11T02:01:25.707Z,24.4390
2023-03-11T02:01:38.102Z,24.4230
2023-03-11T02:01:49.438Z,24.4230
2023-03-11T02:02:00.560Z,24.4050
2023-03-11T02:02:11.726Z,24.3930
2023-03-11T02:02:22.904Z,24.4140
2023-03-11T02:02:33.985Z,24.4290
2023-03-11T02:02:45.043Z,24.4340
2023-03-11T02:02:56.161Z,24.4340
2023-03-11T02:03:07.232Z,24.4340
2023-03-11T02:03:18.305Z,24.4230
2023-03-11T02:03:29.479Z,24.4350
2023-03-11T02:03:40.496Z,24.4140
2023-03-11T02:03:51.538Z,24.4040
2023-03-11T02:04:02.738Z,24.4090
2023-03-11T02:04:13.964Z,24.4190
2023-03-11T02:04:25.126Z,24.4430
2023-03-11T02:04:36.169Z,24.4520
2023-03-11T02:04:47.208Z,24.4470
2023-03-11T02:04:58.417Z,24.4250
2023-03-11T02:05:09.619Z,24.4340
2023-03-11T02:05:20.807Z,24.4230
2023-03-11T02:05:31.857Z,24.4390
2023-03-11T02:05:42.937Z,24.4390
2023-03-11T02:05:54.088Z,24.4620
2023-03-11T02:06:05.295Z,24.4470
2023-03-11T02:06:16.516Z,24.4370
2023-03-11T02:06:27.703Z,24.4320
2023-03-11T02:06:38.892Z,24.4320
2023-03-11T02:06:51.404Z,24.4430
2023-03-11T02:07:03.566Z,24.4990
2023-03-11T02:07:14.729Z,24.4820
2023-03-11T02:07:25.781Z,24.4680
2023-03-11T02:07:36.816Z,24.4220
2023-03-11T02:07:48.010Z,24.4130
2023-03-11T02:07:59.225Z,24.4180
2023-03-11T02:08:10.415Z,24.4280
2023-03-11T02:08:21.607Z,24.4100
2023-03-11T02:08:32.646Z,24.4130
2023-03-11T02:08:43.689Z,24.4160
2023-03-11T02:08:54.910Z,24.3960
2023-03-11T02:09:06.020Z,24.4100
2023-03-11T02:09:17.125Z,24.4140
2023-03-11T02:09:28.252Z,24.4390
2023-03-11T02:09:39.321Z,24.4600
2023-03-11T02:09:50.330Z,24.4740
2023-03-11T02:10:01.537Z,24.4800
2023-03-11T02:10:12.738Z,24.4860
2023-03-11T02:10:23.936Z,24.5020
2023-03-11T02:10:35.130Z,24.5220
2023-03-11T02:10:46.172Z,24.5020
2023-03-11T02:10:57.213Z,24.4960
2023-03-11T02:11:08.241Z,24.4800
2023-03-11T02:11:19.300Z,24.4770
2023-03-11T02:11:30.493Z,24.4440
2023-03-11T02:11:41.696Z,24.4440
2023-03-11T02:11:52.893Z,24.4300
2023-03-11T02:12:04.002Z,24.4320
2023-03-11T02:12:15.077Z,24.4270
2023-03-11T02:12:26.132Z,24.4230
2023-03-11T02:12:37.380Z,24.4280
2023-03-11T02:12:48.582Z,24.4230
2023-03-11T02:12:59.613Z,24.4280
2023-03-11T02:13:10.695Z,24.4180
2023-03-11T02:13:21.859Z,24.4160
2023-03-11T02:13:32.895Z,24.4320
2023-03-11T02:13:43.944Z,24.4470
2023-03-11T02:13:55.134Z,24.4470
2023-03-11T02:14:06.189Z,24.4550
2023-03-11T02:14:17.244Z,24.4770
2023-03-11T02:14:28.414Z,24.4740
2023-03-11T02:14:39.614Z,24.4960
2023-03-11T02:14:50.656Z,24.4910